Funk Island Bank: Past 24 Hour Conditions

 

St. Anthony Airport

11:30 AM NDT 30 September 2014
This table is a summary of hourly weather conditions for the past 24 hours.
Date / Time
(NDT)
Wind(knots) Conditions Visibility(km) Pressure(kPa) Air tempC) Relative humidity(%) Dew pointC) Wind Chill
30 September 2014
11:30 WSW 14 gust 24 Mainly Sunny 16 102.1 9 45 -2 *
10:30 S 9 Sunny 16 102.2 8 54 -1 *
9:30 S 9 Sunny 16 102.3 5 64 -2 *
8:30 S 8 Sunny 16 102.3 0 82 -3 *
7:30 SSE 7 Mainly Sunny 16 102.3 -3 89 -4 -7
6:30 SSW 7 Clear 16 102.3 -1 77 -4 -5
5:30 SSW 7 Clear 16 102.4 1 70 -4 *
4:30 SW 9 Clear 16 102.4 -1 78 -4 -5
3:30 SSW 6 Clear 16 102.4 -1 77 -4 -5
2:30 SSW 7 Clear 16 102.4 -2 81 -5 -6
1:30 SW 8 Clear 16 102.4 0 73 -4 -4
0:30 WNW 7 Clear 16 102.4 1 72 -4 *
29 September 2014
23:30 NW 4 Clear 16 102.4 2 64 -5 *
22:30 NW 9 Clear 16 102.3 2 61 -5 *
21:30 W 5 Clear 16 102.3 1 65 -5 *
20:30 N 2 Clear 16 102.2 4 46 -7 *
19:30 WNW 9 Clear 16 102.1 4 47 -6 *
18:30 WNW 11 gust 19 Sunny 16 102.0 6 41 -7 *
17:30 W 14 gust 23 Sunny 16 102.0 6 37 -7 *
16:30 WNW 18 gust 23 Sunny 16 101.9 7 38 -7 *
15:30 WNW 16 gust 22 Mainly Sunny 16 101.9 7 38 -7 *
14:30 WNW 21 gust 26 Partly Cloudy 16 101.8 7 38 -7 *
13:30 WNW 17 gust 23 Mainly Sunny 16 101.8 6 41 -6 *
12:30 WNW 17 gust 24 Mainly Sunny 16 101.7 6 48 -4 *
11:30 WNW 18 gust 23 Sunny 16 101.7 5 52 -4 *
 
Map of Atlantic - Newfoundland marine weather areas Southwestern Grand Banks - 44138 Banquereau - 44139 Tail of the Bank - 44140 Nickerson Bank - 44251 Northeast Burgeo Bank - 44255 Blanc-Sablon Airport Cap Whittle Chevery Natashquan Airport Heath Point Miscou Island Grand Étang Ingonish Beach North Mountain St.Paul Island J.A. Douglas McCurdy Sydney Airport Charlottetown Airport East Point North Cape Argentia Bonavista Burgeo Cape Race Corner Brook Daniel's Harbour Englee Ferolle Point La Scie Port aux Basques Rocky Harbour Sagona Island St. Anthony Airport St. John's Int'l Airport St. Lawrence Stephenville Airport Twillingate Winterland Wreckhouse Cartwright Airport Mary's Harbour Grates Cove Pool's Island Marticot Island Long Pond Îles de la Madeleine Airport
Legend: buoyBuoy land stationLand Station